Time;durP1;ratioP1;P1;durP2;ratioP2;P2;SDS_P1;SDS_P2;PMS_P1;PMS_P2;Temp;Humidity;BMP_temperature;BMP_pressure;BME280_temperature;BME280_humidity;BME280_pressure;Samples;Min_cycle;Max_cycle;Signal;HPM_P1;HPM_P2
2022/01/10 00:02:12;;;;;;;6.40;2.53;;;;;;;-0.69;100.00;94770.06;5107859;28;20047;-75
2022/01/10 00:04:37;;;;;;;5.18;2.33;;;;;;;-0.57;100.00;94768.34;5108492;28;20408;-75
2022/01/10 00:07:03;;;;;;;4.47;2.30;;;;;;;-0.49;100.00;94769.03;5115813;27;20035;-75
2022/01/10 00:09:29;;;;;;;6.03;2.63;;;;;;;-0.59;100.00;94770.34;5109686;27;20040;-75
2022/01/10 00:11:54;;;;;;;3.80;1.90;;;;;;;-0.64;100.00;94770.19;5085195;28;20052;-75
2022/01/10 00:14:20;;;;;;;6.80;2.72;;;;;;;-0.60;100.00;94763.59;5095258;28;20040;-74
2022/01/10 00:16:45;;;;;;;4.88;2.22;;;;;;;-0.56;100.00;94769.91;5111300;27;20555;-75
2022/01/10 00:19:11;;;;;;;5.68;2.47;;;;;;;-0.50;100.00;94767.44;5127892;27;20047;-74
2022/01/10 00:21:36;;;;;;;5.43;2.35;;;;;;;-0.49;100.00;94758.69;5113766;27;20473;-75
2022/01/10 00:24:02;;;;;;;4.78;2.33;;;;;;;-0.44;100.00;94766.59;5123563;27;20457;-74
2022/01/10 00:26:28;;;;;;;9.82;2.90;;;;;;;-0.36;100.00;94764.50;5124533;27;20412;-75
2022/01/10 00:28:53;;;;;;;5.75;2.33;;;;;;;-0.54;100.00;94773.06;5114726;27;20073;-75
2022/01/10 00:31:19;;;;;;;6.07;2.50;;;;;;;-0.67;100.00;94767.28;5088778;28;20039;-75
2022/01/10 00:33:45;;;;;;;3.78;2.13;;;;;;;-0.45;100.00;94765.00;5094457;28;20039;-74
2022/01/10 00:36:11;;;;;;;4.32;2.30;;;;;;;-0.44;100.00;94766.59;5086195;28;20493;-74
2022/01/10 00:38:37;;;;;;;6.65;2.47;;;;;;;-0.35;100.00;94760.09;5108528;28;20048;-72
2022/01/10 00:41:03;;;;;;;5.93;2.67;;;;;;;-0.39;100.00;94761.53;5107711;28;20051;-74
2022/01/10 00:43:32;;;;;;;5.35;2.60;;;;;;;-0.45;100.00;94760.63;5087874;28;20043;-74
2022/01/10 00:45:59;;;;;;;6.20;2.33;;;;;;;-0.46;100.00;94763.44;5073167;28;20044;-74
2022/01/10 00:48:25;;;;;;;6.60;2.60;;;;;;;-0.50;100.00;94757.13;5091173;28;20150;-73
2022/01/10 00:50:50;;;;;;;5.05;2.30;;;;;;;-0.57;100.00;94758.00;5091986;28;20456;-74
2022/01/10 00:53:16;;;;;;;5.60;2.30;;;;;;;-0.59;100.00;94770.34;5111327;28;20684;-74
2022/01/10 00:55:42;;;;;;;4.32;2.13;;;;;;;-0.76;100.00;94769.34;5109899;27;20080;-74
2022/01/10 00:58:07;;;;;;;8.35;2.63;;;;;;;-0.81;100.00;94771.78;5100449;28;20093;-74
2022/01/10 01:00:33;;;;;;;5.07;2.58;;;;;;;-0.93;100.00;94775.09;5105331;28;20035;-74
2022/01/10 01:02:58;;;;;;;5.07;2.40;;;;;;;-1.04;100.00;94770.63;5111773;28;20101;-74
2022/01/10 01:05:26;;;;;;;8.07;2.67;;;;;;;-1.14;100.00;94772.94;5108582;28;20472;-74
2022/01/10 01:07:52;;;;;;;7.22;2.65;;;;;;;-1.24;100.00;94781.94;5110028;28;20062;-73
2022/01/10 01:16:42;;;;;;;8.63;2.25;;;;;;;-1.17;100.00;94794.78;5090479;28;20512;-74
2022/01/10 01:24:07;;;;;;;6.43;2.35;;;;;;;-1.05;100.00;94807.78;5091067;27;20048;-74
2022/01/10 01:26:39;;;;;;;4.45;2.22;;;;;;;-1.07;100.00;94814.97;5101557;28;20047;-74
2022/01/10 01:29:08;;;;;;;8.10;2.35;;;;;;;-1.09;100.00;94815.19;5120641;27;20485;-74
2022/01/10 01:31:34;;;;;;;5.35;2.50;;;;;;;-1.12;100.00;94827.72;5119260;27;20128;-75
2022/01/10 01:34:00;;;;;;;5.55;2.42;;;;;;;-1.14;100.00;94829.75;5104113;28;20043;-74
2022/01/10 01:36:27;;;;;;;5.32;2.40;;;;;;;-1.24;100.00;94831.00;5089878;28;20097;-74
2022/01/10 01:38:54;;;;;;;6.32;2.40;;;;;;;-1.13;100.00;94841.66;5096998;27;20101;-75
2022/01/10 01:43:55;;;;;;;4.45;2.40;;;;;;;-1.13;100.00;94841.66;5112765;27;20039;-75
2022/01/10 01:46:21;;;;;;;4.90;2.40;;;;;;;-1.14;100.00;94843.44;5112963;27;20039;-74
2022/01/10 01:48:47;;;;;;;4.65;2.80;;;;;;;-1.05;100.00;94843.94;5094302;28;20039;-74
2022/01/10 01:51:14;;;;;;;5.78;2.90;;;;;;;-1.05;100.00;94843.94;5112705;27;20047;-74
2022/01/10 01:53:40;;;;;;;4.75;2.60;;;;;;;-1.08;100.00;94849.53;5099597;28;20105;-75
2022/01/10 01:56:07;;;;;;;7.53;2.67;;;;;;;-1.17;100.00;94845.66;5105534;28;20489;-74
2022/01/10 01:58:33;;;;;;;5.63;2.40;;;;;;;-1.13;100.00;94851.97;5107453;27;20049;-74
2022/01/10 02:01:00;;;;;;;8.85;2.78;;;;;;;-1.27;100.00;94852.06;5110041;28;20031;-75
2022/01/10 02:03:25;;;;;;;6.00;2.72;;;;;;;-1.29;100.00;94848.94;5107579;27;20050;-74
2022/01/10 02:05:51;;;;;;;4.55;2.53;;;;;;;-1.07;100.00;94856.28;5108763;28;20544;-74
2022/01/10 02:08:16;;;;;;;4.65;2.42;;;;;;;-1.00;100.00;94856.25;5098563;28;20059;-75
2022/01/10 02:10:42;;;;;;;5.85;2.58;;;;;;;-1.01;100.00;94858.00;5105453;28;20629;-74
2022/01/10 02:13:08;;;;;;;4.13;2.28;;;;;;;-0.92;100.00;94868.88;5085512;28;20044;-75
2022/01/10 02:15:47;;;;;;;5.13;2.60;;;;;;;-0.96;100.00;94868.50;5109486;28;20110;-74
2022/01/10 02:18:14;;;;;;;5.80;2.60;;;;;;;-0.93;100.00;94873.25;5106923;28;20036;-74
2022/01/10 02:20:40;;;;;;;4.25;2.13;;;;;;;-0.94;100.00;94876.81;5109597;28;20068;-75
2022/01/10 02:23:06;;;;;;;3.85;2.10;;;;;;;-0.97;100.00;94887.59;5100852;28;20078;-75
2022/01/10 02:25:31;;;;;;;6.40;2.50;;;;;;;-1.09;100.00;94891.88;5089385;28;20046;-74
2022/01/10 02:27:57;;;;;;;5.30;2.28;;;;;;;-1.17;100.00;94882.59;5102280;28;20043;-74
2022/01/10 02:30:23;;;;;;;3.92;2.20;;;;;;;-1.17;100.00;94886.97;5109371;28;20040;-75
2022/01/10 02:32:49;;;;;;;6.22;2.33;;;;;;;-1.25;100.00;94882.84;5085716;28;20040;-75
2022/01/10 02:35:24;;;;;;;6.15;2.67;;;;;;;-1.23;100.00;94891.19;5088772;28;20047;-75
2022/01/10 02:37:51;;;;;;;4.07;2.03;;;;;;;-1.14;100.00;94897.66;5095296;28;20047;-74
2022/01/10 02:40:19;;;;;;;9.57;2.70;;;;;;;-1.04;100.00;94897.19;5089589;28;20048;-75
2022/01/10 02:42:45;;;;;;;6.78;2.78;;;;;;;-1.03;100.00;94903.94;5089492;28;20083;-74
2022/01/10 02:45:11;;;;;;;6.88;2.28;;;;;;;-0.99;100.00;94910.25;5104507;28;20032;-74
2022/01/10 02:47:36;;;;;;;4.25;2.00;;;;;;;-0.95;100.00;94911.44;5107382;27;20051;-74
2022/01/10 02:50:04;;;;;;;6.13;2.15;;;;;;;-1.01;100.00;94906.31;5114482;27;20039;-73
2022/01/10 02:52:30;;;;;;;4.22;2.17;;;;;;;-0.93;100.00;94911.22;5118800;27;20062;-74
2022/01/10 02:54:57;;;;;;;4.95;2.40;;;;;;;-0.99;100.00;94915.44;5094165;27;20759;-74
2022/01/10 02:57:22;;;;;;;6.38;2.47;;;;;;;-1.02;100.00;94921.03;5104770;27;20039;-74
2022/01/10 02:59:48;;;;;;;6.00;2.85;;;;;;;-1.03;100.00;94919.44;5104847;27;20578;-74
2022/01/10 03:02:20;;;;;;;5.43;2.10;;;;;;;-1.04;100.00;94928.19;5092205;28;20055;-74
2022/01/10 03:04:45;;;;;;;5.68;1.98;;;;;;;-1.05;100.00;94926.59;5105225;27;20039;-74
2022/01/10 03:07:15;;;;;;;6.20;2.10;;;;;;;-1.03;100.00;94924.59;5110146;27;20077;-74
2022/01/10 03:09:41;;;;;;;3.63;2.22;;;;;;;-1.08;100.00;94927.00;5107808;27;20055;-74
2022/01/10 03:12:09;;;;;;;6.90;2.50;;;;;;;-1.03;100.00;94928.97;5072123;28;20142;-74
2022/01/10 03:14:36;;;;;;;5.13;2.30;;;;;;;-1.00;100.00;94928.56;5088669;28;20047;-75
2022/01/10 03:17:01;;;;;;;5.15;2.40;;;;;;;-1.07;100.00;94924.22;5088653;28;20136;-74
2022/01/10 03:19:27;;;;;;;7.03;2.40;;;;;;;-0.97;100.00;94939.25;5088648;28;20079;-74
2022/01/10 03:21:53;;;;;;;3.88;2.22;;;;;;;-0.93;100.00;94944.78;5097965;28;20047;-74
2022/01/10 03:24:19;;;;;;;6.25;2.45;;;;;;;-0.87;100.00;94939.56;5108680;28;20051;-73
2022/01/10 03:26:44;;;;;;;6.63;2.28;;;;;;;-0.91;100.00;94948.72;5104388;28;20039;-74
2022/01/10 03:29:10;;;;;;;3.92;2.08;;;;;;;-1.07;100.00;94949.25;5108767;28;20051;-74
2022/01/10 03:31:36;;;;;;;6.18;2.47;;;;;;;-1.02;100.00;94957.19;5101096;28;20036;-74
2022/01/10 03:34:01;;;;;;;5.53;2.00;;;;;;;-0.97;100.00;94954.75;5097830;28;20047;-74
2022/01/10 03:36:27;;;;;;;5.28;2.13;;;;;;;-0.87;100.00;94954.28;5088356;28;20127;-74
2022/01/10 03:38:52;;;;;;;5.03;2.28;;;;;;;-0.88;100.00;94958.66;5088269;28;20555;-74
2022/01/10 03:41:18;;;;;;;8.50;2.67;;;;;;;-1.01;100.00;94958.75;5102836;28;20043;-74
2022/01/10 03:43:44;;;;;;;6.07;2.72;;;;;;;-0.94;100.00;94963.88;5074413;28;20070;-75
2022/01/10 03:46:10;;;;;;;4.90;2.70;;;;;;;-0.89;100.00;94967.41;5094203;28;20085;-75
2022/01/10 03:48:35;;;;;;;6.05;2.45;;;;;;;-0.92;100.00;94967.84;5110467;28;20078;-74
2022/01/10 03:51:01;;;;;;;6.20;2.67;;;;;;;-1.00;100.00;94970.66;5118139;27;20849;-74
2022/01/10 03:53:27;;;;;;;7.28;2.33;;;;;;;-1.07;100.00;94969.91;5115242;27;20051;-73
2022/01/10 03:55:52;;;;;;;4.45;2.40;;;;;;;-1.04;100.00;94969.50;5110518;28;20470;-73
2022/01/10 03:58:18;;;;;;;8.48;2.90;;;;;;;-1.09;100.00;94977.09;5104162;27;20040;-74
2022/01/10 04:00:44;;;;;;;6.07;2.50;;;;;;;-1.08;100.00;94973.50;5102331;27;20089;-74
2022/01/10 04:03:09;;;;;;;5.47;2.58;;;;;;;-1.06;100.00;94981.84;5092136;28;20051;-74
2022/01/10 04:05:35;;;;;;;5.07;2.53;;;;;;;-0.97;100.00;94980.56;5095405;27;20046;-73
2022/01/10 04:08:01;;;;;;;7.22;2.50;;;;;;;-0.87;100.00;94985.28;5104550;27;20500;-74
2022/01/10 04:10:26;;;;;;;5.15;2.30;;;;;;;-0.84;100.00;94978.91;5108988;27;20139;-73
2022/01/10 04:12:52;;;;;;;6.55;2.90;;;;;;;-0.80;100.00;94977.50;5097877;28;20512;-74
2022/01/10 04:15:18;;;;;;;5.82;2.83;;;;;;;-0.83;100.00;94990.81;5116468;27;20042;-74
2022/01/10 04:17:43;;;;;;;7.05;3.20;;;;;;;-0.84;100.00;94989.25;5105085;27;20409;-74
2022/01/10 04:20:09;;;;;;;6.43;2.90;;;;;;;-0.85;100.00;95003.16;5091762;28;20092;-73
2022/01/10 04:22:35;;;;;;;7.57;3.40;;;;;;;-0.85;100.00;95003.16;5092158;27;20131;-73
2022/01/10 04:25:00;;;;;;;6.95;3.17;;;;;;;-0.87;100.00;95006.72;5091872;28;20040;-74
2022/01/10 04:27:31;;;;;;;8.63;3.10;;;;;;;-0.74;100.00;95002.47;5106682;27;20039;-74
2022/01/10 04:30:00;;;;;;;6.95;3.10;;;;;;;-0.69;100.00;95012.94;5120256;27;20112;-74
2022/01/10 04:32:31;;;;;;;7.85;2.97;;;;;;;-0.75;100.00;95011.22;5112151;28;20047;-74
2022/01/10 04:34:58;;;;;;;8.35;3.08;;;;;;;-0.69;100.00;95018.13;5118613;27;20099;-74
2022/01/10 04:37:23;;;;;;;7.47;3.08;;;;;;;-0.69;100.00;95018.13;5108679;27;20048;-74
2022/01/10 04:39:49;;;;;;;7.60;2.70;;;;;;;-0.70;100.00;95016.56;5079809;28;20032;-74
2022/01/10 04:42:15;;;;;;;5.15;2.80;;;;;;;-0.64;100.00;95026.06;5091710;28;20417;-74
2022/01/10 04:44:41;;;;;;;7.03;3.10;;;;;;;-0.65;100.00;95024.47;5111004;28;20039;-75
2022/01/10 04:47:07;;;;;;;9.45;3.70;;;;;;;-0.57;100.00;95026.78;5116696;27;20058;-75
2022/01/10 04:49:53;;;;;;;9.68;4.05;;;;;;;-0.60;100.00;95032.38;5113046;27;20036;-75
2022/01/10 04:52:18;;;;;;;10.57;4.10;;;;;;;-0.67;100.00;95041.97;5099859;28;20036;-73
2022/01/10 04:54:44;;;;;;;7.40;3.70;;;;;;;-0.65;100.00;95039.19;5104312;27;20046;-73
2022/01/10 04:57:09;;;;;;;8.13;3.65;;;;;;;-0.68;100.00;95045.56;5112934;27;20040;-74
2022/01/10 04:59:35;;;;;;;7.63;3.63;;;;;;;-0.63;100.00;95053.47;5104232;28;20056;-74
2022/01/10 05:02:00;;;;;;;10.50;3.95;;;;;;;-0.67;100.00;95057.47;5091208;28;20048;-74
2022/01/10 05:04:26;;;;;;;8.50;3.78;;;;;;;-0.62;100.00;95060.22;5077938;28;20036;-73
2022/01/10 05:06:51;;;;;;;9.95;3.90;;;;;;;-0.59;100.00;95059.81;5116968;27;20047;-74
2022/01/10 05:09:17;;;;;;;9.77;4.22;;;;;;;-0.64;100.00;95061.44;5108610;27;20039;-74
2022/01/10 05:11:42;;;;;;;14.15;5.60;;;;;;;-0.44;100.00;95067.25;5111239;28;20051;-74
2022/01/10 05:14:08;;;;;;;9.77;4.72;;;;;;;-0.46;100.00;95068.47;5116488;27;20462;-74
2022/01/10 05:16:34;;;;;;;11.52;5.22;;;;;;;-0.36;100.00;95073.94;5122923;27;20071;-74
2022/01/10 05:18:59;;;;;;;12.52;4.93;;;;;;;-0.41;100.00;95076.38;5096880;27;20097;-74
2022/01/10 05:21:25;;;;;;;10.60;4.68;;;;;;;-0.50;100.00;95077.63;5100143;27;20512;-74
2022/01/10 05:23:51;;;;;;;12.80;4.97;;;;;;;-0.48;100.00;95086.00;5101298;28;20044;-73
2022/01/10 05:26:16;;;;;;;11.98;5.25;;;;;;;-0.51;100.00;95086.41;5101468;28;20039;-73
2022/01/10 05:28:42;;;;;;;11.00;4.72;;;;;;;-0.55;100.00;95081.66;5112084;27;20047;-74
2022/01/10 05:31:08;;;;;;;13.90;5.80;;;;;;;-0.53;100.00;95084.03;5120271;27;20044;-74
2022/01/10 05:33:33;;;;;;;16.52;6.45;;;;;;;-0.51;100.00;95096.75;5097573;27;20504;-74
2022/01/10 05:35:59;;;;;;;18.70;6.50;;;;;;;-0.40;100.00;95096.09;5117046;27;20738;-74
2022/01/10 05:38:25;;;;;;;14.60;6.53;;;;;;;-0.33;100.00;95099.41;5089659;28;20134;-73
2022/01/10 05:40:50;;;;;;;20.45;7.40;;;;;;;-0.28;100.00;95096.97;5101767;28;20039;-74
2022/01/10 05:43:16;;;;;;;16.60;6.95;;;;;;;-0.28;100.00;95107.31;5100513;28;20047;-74
2022/01/10 05:45:45;;;;;;;18.08;6.80;;;;;;;-0.24;100.00;95107.69;5091982;28;20470;-74
2022/01/10 05:48:15;;;;;;;15.93;6.65;;;;;;;-0.09;100.00;95113.31;5110933;27;20058;-73
2022/01/10 05:50:43;;;;;;;16.23;6.70;;;;;;;-0.15;100.00;95115.97;5120683;27;20042;-74
2022/01/10 05:53:12;;;;;;;18.60;7.20;;;;;;;-0.20;100.00;95119.19;5092705;28;20051;-74
2022/01/10 05:55:38;;;;;;;15.38;6.47;;;;;;;-0.12;100.00;95118.13;5120076;27;20523;-74
2022/01/10 05:58:05;;;;;;;14.27;7.00;;;;;;;-0.20;100.00;95122.56;5124963;27;20044;-74
2022/01/10 06:00:32;;;;;;;15.32;7.10;;;;;;;-0.22;100.00;95127.16;5100183;27;20048;-74
2022/01/10 06:02:57;;;;;;;15.52;6.88;;;;;;;-0.21;100.00;95139.09;5089746;28;20044;-74
2022/01/10 06:05:29;;;;;;;20.70;8.15;;;;;;;-0.21;100.00;95141.66;5094152;27;20040;-74
2022/01/10 06:07:54;;;;;;;17.52;7.40;;;;;;;-0.20;100.00;95142.47;5089612;28;20085;-74
2022/01/10 06:10:20;;;;;;;17.98;7.65;;;;;;;-0.23;100.00;95151.44;5109944;27;20040;-74
2022/01/10 06:12:45;;;;;;;17.50;7.85;;;;;;;-0.22;100.00;95160.75;5130851;27;20043;-73
2022/01/10 06:15:11;;;;;;;26.45;9.18;;;;;;;-0.13;100.00;95155.34;5113618;27;20040;-74
2022/01/10 06:17:37;;;;;;;18.92;8.95;;;;;;;-0.10;100.00;95165.25;5094538;27;20044;-74
2022/01/10 06:20:03;;;;;;;17.67;8.20;;;;;;;-0.03;100.00;95168.59;5092693;27;20070;-74
2022/01/10 06:22:29;;;;;;;20.30;8.52;;;;;;;-0.10;100.00;95170.44;5090329;28;20055;-74
2022/01/10 06:24:56;;;;;;;22.95;9.25;;;;;;;-0.14;100.00;95166.69;5108513;28;20401;-75
2022/01/10 06:27:21;;;;;;;22.35;9.73;;;;;;;-0.06;100.00;95176.78;5105006;28;20110;-74
2022/01/10 06:29:47;;;;;;;17.00;8.52;;;;;;;-0.10;100.00;95183.38;5114179;27;20055;-74
2022/01/10 06:32:12;;;;;;;21.55;9.68;;;;;;;-0.09;100.00;95182.38;5109738;28;20412;-74
2022/01/10 06:34:38;;;;;;;25.52;9.15;;;;;;;-0.13;100.00;95188.97;5112434;27;20047;-74
2022/01/10 06:37:04;;;;;;;22.88;9.75;;;;;;;-0.08;100.00;95200.28;5089728;28;20119;-76
2022/01/10 06:39:29;;;;;;;23.02;9.15;;;;;;;-0.06;100.00;95202.66;5101496;28;20066;-76
2022/01/10 06:41:55;;;;;;;22.30;8.77;;;;;;;0.04;100.00;95192.63;5109693;28;20044;-76
2022/01/10 06:44:20;;;;;;;21.45;9.40;;;;;;;0.01;100.00;95208.56;5102577;27;20058;-76
2022/01/10 06:46:46;;;;;;;22.70;8.93;;;;;;;0.01;100.00;95212.97;5105105;28;20043;-77
2022/01/10 06:49:11;;;;;;;24.75;9.38;;;;;;;-0.05;100.00;95224.94;5097207;27;20054;-76
2022/01/10 06:51:37;;;;;;;24.77;10.15;;;;;;;-0.08;100.00;95225.34;5071067;28;20505;-76
2022/01/10 06:54:02;;;;;;;22.55;10.13;;;;;;;-0.03;100.00;95233.25;5094303;28;20044;-76
2022/01/10 06:56:28;;;;;;;21.48;9.18;;;;;;;-0.01;100.00;95237.25;5095427;28;20404;-76
2022/01/10 06:58:54;;;;;;;21.15;9.77;;;;;;;0.01;100.00;95238.84;5101381;28;20093;-77
2022/01/10 07:01:20;;;;;;;24.13;9.43;;;;;;;0.04;100.00;95239.19;5091946;28;20032;-76
2022/01/10 07:03:46;;;;;;;18.70;8.70;;;;;;;0.04;100.00;95244.38;5091990;28;20118;-77
2022/01/10 07:06:11;;;;;;;27.13;10.50;;;;;;;0.00;100.00;95248.41;5101069;28;20051;-77
2022/01/10 07:08:37;;;;;;;27.00;9.85;;;;;;;-0.01;100.00;95259.75;5102990;28;20040;-77
2022/01/10 07:11:02;;;;;;;29.13;10.05;;;;;;;-0.03;100.00;95265.13;5095837;28;20413;-76
2022/01/10 07:13:29;;;;;;;26.35;9.65;;;;;;;-0.02;100.00;95268.50;5103827;28;20078;-76
2022/01/10 07:15:54;;;;;;;24.92;10.18;;;;;;;0.03;100.00;95276.44;5099332;28;20111;-76
2022/01/10 07:18:20;;;;;;;24.15;9.60;;;;;;;-0.02;100.00;95273.66;5092941;28;20521;-77
2022/01/10 07:20:45;;;;;;;34.08;9.93;;;;;;;-0.01;100.00;95277.84;5075970;28;20040;-76
2022/01/10 07:23:11;;;;;;;31.00;11.20;;;;;;;-0.04;100.00;95278.28;5098250;28;20464;-76
2022/01/10 07:25:37;;;;;;;24.73;11.20;;;;;;;0.13;100.00;95289.69;5088311;28;20123;-76
2022/01/10 07:28:02;;;;;;;25.40;10.82;;;;;;;0.02;100.00;95287.78;5089276;28;20040;-76
2022/01/10 07:30:28;;;;;;;26.65;11.18;;;;;;;0.02;100.00;95292.16;5103389;28;20036;-77
2022/01/10 07:32:53;;;;;;;29.52;11.30;;;;;;;-0.01;100.00;95301.13;5098632;28;20049;-76
2022/01/10 07:35:19;;;;;;;25.08;11.32;;;;;;;-0.03;100.00;95305.69;5118010;28;20681;-77
2022/01/10 07:37:45;;;;;;;28.73;11.20;;;;;;;0.03;100.00;95312.66;5108177;28;20039;-77
2022/01/10 07:40:11;;;;;;;34.03;11.68;;;;;;;0.04;100.00;95311.63;5096796;28;20138;-76
2022/01/10 07:42:37;;;;;;;29.13;11.95;;;;;;;0.01;100.00;95322.41;5108961;28;20048;-76
2022/01/10 07:45:04;;;;;;;30.73;12.27;;;;;;;0.03;100.00;95320.41;5103881;28;20035;-76
2022/01/10 07:47:29;;;;;;;28.67;12.48;;;;;;;0.02;100.00;95331.75;5099058;28;20043;-76
2022/01/10 07:49:55;;;;;;;35.13;13.32;;;;;;;0.00;100.00;95336.38;5092516;28;20119;-75
2022/01/10 07:52:22;;;;;;;32.70;12.88;;;;;;;0.02;100.00;95334.34;5075588;28;20497;-75
2022/01/10 07:54:48;;;;;;;40.22;13.48;;;;;;;-0.01;100.00;95345.13;5115548;28;20524;-75
2022/01/10 07:57:14;;;;;;;38.50;13.25;;;;;;;0.00;100.00;95346.72;5094517;28;20043;-77
2022/01/10 07:59:40;;;;;;;28.63;13.45;;;;;;;-0.01;100.00;95350.28;5086813;28;20930;-76
2022/01/10 08:02:06;;;;;;;32.47;13.82;;;;;;;0.03;100.00;95350.66;5103049;28;20109;-76
2022/01/10 08:04:32;;;;;;;32.65;13.55;;;;;;;0.06;100.00;95361.41;5092473;28;20044;-73
2022/01/10 08:06:57;;;;;;;30.80;13.20;;;;;;;0.05;100.00;95359.03;5106318;28;20524;-72
2022/01/10 08:09:23;;;;;;;32.03;13.80;;;;;;;0.15;100.00;95365.31;5101741;28;20493;-72
2022/01/10 08:11:48;;;;;;;31.27;13.88;;;;;;;0.11;100.00;95364.16;5093181;28;20058;-77
2022/01/10 08:14:14;;;;;;;34.75;13.98;;;;;;;0.10;100.00;95367.75;5084202;28;20067;-77
2022/01/10 08:16:40;;;;;;;39.92;14.00;;;;;;;0.10;100.00;95364.34;5105081;28;20047;-76
2022/01/10 08:19:06;;;;;;;33.97;13.73;;;;;;;0.30;100.00;95378.00;5093319;28;20044;-76
2022/01/10 08:21:31;;;;;;;34.50;13.50;;;;;;;0.36;100.00;95375.56;5079843;28;20580;-76
2022/01/10 08:23:57;;;;;;;33.83;13.73;;;;;;;0.27;100.00;95382.78;5106716;28;20043;-77
2022/01/10 08:26:23;;;;;;;30.50;13.35;;;;;;;0.24;100.00;95384.00;5094925;28;20036;-78
2022/01/10 08:28:48;;;;;;;47.80;14.57;;;;;;;0.26;100.00;95391.53;5083297;28;20044;-77
2022/01/10 08:31:14;;;;;;;32.75;13.75;;;;;;;0.17;100.00;95389.22;5096391;27;20520;-77
2022/01/10 08:33:41;;;;;;;37.28;13.45;;;;;;;0.29;100.00;95401.50;5097057;28;20111;-76
2022/01/10 08:36:07;;;;;;;36.08;13.95;;;;;;;0.30;100.00;95403.91;5092712;28;20054;-76
2022/01/10 08:38:33;;;;;;;33.00;13.38;;;;;;;0.36;100.00;95404.03;5096569;27;20036;-76
2022/01/10 08:40:59;;;;;;;33.13;14.23;;;;;;;0.38;100.00;95405.44;5092736;28;21842;-76
2022/01/10 08:43:25;;;;;;;33.00;13.82;;;;;;;0.38;100.00;95405.44;5080597;28;20114;-75
2022/01/10 08:45:50;;;;;;;32.83;14.20;;;;;;;0.42;100.00;95416.19;5109302;28;20512;-77
2022/01/10 08:48:16;;;;;;;44.25;13.90;;;;;;;0.40;100.00;95411.19;5109923;28;20396;-76
2022/01/10 08:50:42;;;;;;;37.20;13.25;;;;;;;0.43;100.00;95428.91;5112789;27;20404;-76
2022/01/10 08:53:09;;;;;;;34.95;14.23;;;;;;;0.33;100.00;95429.34;5106187;28;20127;-76
2022/01/10 08:55:35;;;;;;;30.77;14.05;;;;;;;0.38;100.00;95436.50;5111272;28;20044;-76
2022/01/10 08:58:01;;;;;;;35.47;13.45;;;;;;;0.34;100.00;95440.50;5075988;28;20036;-77
2022/01/10 09:00:27;;;;;;;33.50;13.70;;;;;;;0.45;100.00;95442.44;5110850;27;20091;-77
2022/01/10 09:02:53;;;;;;;35.55;13.55;;;;;;;0.41;100.00;95446.44;5115285;27;20433;-76
2022/01/10 09:05:19;;;;;;;32.60;13.48;;;;;;;0.49;100.00;95456.56;5106501;28;20048;-77
2022/01/10 09:07:46;;;;;;;34.55;13.13;;;;;;;0.52;100.00;95457.94;5112592;28;20039;-79
2022/01/10 09:10:11;;;;;;;32.28;12.85;;;;;;;0.47;100.00;95460.34;5092747;28;20759;-78
2022/01/10 09:12:38;;;;;;;44.35;12.95;;;;;;;0.40;100.00;95470.72;5127137;27;20054;-78
2022/01/10 09:15:08;;;;;;;37.70;13.60;;;;;;;0.38;100.00;95467.56;5096114;28;20536;-78
2022/01/10 09:17:34;;;;;;;33.95;12.60;;;;;;;0.42;100.00;95468.75;5098358;28;20032;-77
2022/01/10 09:19:59;;;;;;;31.92;12.90;;;;;;;0.42;100.00;95479.09;5108387;27;20503;-77
2022/01/10 09:22:25;;;;;;;32.65;12.63;;;;;;;0.50;100.00;95481.47;5114155;27;20424;-77
2022/01/10 09:24:51;;;;;;;34.92;14.20;;;;;;;0.48;100.00;95483.44;5102050;28;20101;-77
2022/01/10 09:27:16;;;;;;;33.38;13.43;;;;;;;0.54;100.00;95486.22;5107702;28;20047;-75
2022/01/10 09:29:42;;;;;;;35.83;13.68;;;;;;;0.57;100.00;95485.81;5092271;28;20068;-76
2022/01/10 09:32:09;;;;;;;37.50;13.75;;;;;;;0.61;100.00;95492.16;5102157;28;20036;-75
2022/01/10 09:34:35;;;;;;;38.42;13.43;;;;;;;0.61;100.00;95492.16;5098729;27;20143;-76
2022/01/10 09:37:01;;;;;;;33.95;13.55;;;;;;;0.69;100.00;95497.13;5114913;27;20053;-75
2022/01/10 09:39:27;;;;;;;37.47;14.30;;;;;;;0.59;100.00;95499.34;5103927;28;20036;-74
2022/01/10 09:41:56;;;;;;;36.95;13.52;;;;;;;0.51;100.00;95508.16;5092495;28;20482;-74
2022/01/10 09:44:23;;;;;;;38.90;13.48;;;;;;;0.50;100.00;95507.34;5091807;28;20047;-74
2022/01/10 09:46:48;;;;;;;31.40;12.80;;;;;;;0.58;100.00;95510.72;5094814;28;20036;-74
2022/01/10 09:49:15;;;;;;;39.35;13.93;;;;;;;0.57;100.00;95511.72;5091454;28;20051;-74
2022/01/10 09:51:41;;;;;;;39.88;14.20;;;;;;;0.62;100.00;95519.66;5106919;28;20111;-74
2022/01/10 09:54:07;;;;;;;36.63;14.10;;;;;;;0.60;100.00;95521.66;5096581;28;20123;-75
2022/01/10 09:56:32;;;;;;;35.72;14.05;;;;;;;0.57;100.00;95527.25;5098722;27;20490;-75
2022/01/10 09:58:59;;;;;;;34.47;13.55;;;;;;;0.59;100.00;95535.59;5103763;27;20125;-74
2022/01/10 10:01:28;;;;;;;28.35;13.00;;;;;;;0.47;100.00;95538.81;5083107;28;20043;-74
2022/01/10 10:03:58;;;;;;;51.50;15.10;;;;;;;0.43;100.00;95534.25;5101557;28;20050;-74
2022/01/10 10:06:28;;;;;;;31.60;12.20;;;;;;;0.49;100.00;95536.84;5090029;28;20042;-74
2022/01/10 10:09:08;;;;;;;32.75;12.68;;;;;;;0.44;100.00;95539.22;5076325;28;20069;-74
2022/01/10 10:11:44;;;;;;;27.98;12.52;;;;;;;0.46;100.00;95539.84;5118574;27;20046;-75
2022/01/10 10:14:12;;;;;;;37.63;12.95;;;;;;;0.48;100.00;95545.59;5089104;27;20490;-75
2022/01/10 10:16:41;;;;;;;26.25;10.77;;;;;;;0.66;100.00;95533.78;5093406;27;20051;-76
2022/01/10 10:19:07;;;;;;;30.65;13.18;;;;;;;0.84;100.00;95533.88;5090504;27;20565;-77
2022/01/10 10:21:34;;;;;;;28.73;11.93;;;;;;;0.97;99.05;95547.78;5108389;27;20036;-75
2022/01/10 10:24:04;;;;;;;37.40;11.48;;;;;;;0.91;100.00;95543.44;5093807;28;20101;-75
2022/01/10 10:26:29;;;;;;;28.70;12.10;;;;;;;1.11;99.18;95549.31;5110623;28;20083;-76
2022/01/10 10:28:56;;;;;;;29.85;10.32;;;;;;;1.40;98.04;95547.13;5115025;28;20054;-75
2022/01/10 10:31:44;;;;;;;24.25;10.50;;;;;;;1.65;96.80;95548.94;5116085;28;20044;-76
2022/01/10 10:34:10;;;;;;;27.23;10.85;;;;;;;1.62;97.48;95554.56;5119684;27;20065;-76
2022/01/10 10:36:36;;;;;;;28.58;11.27;;;;;;;1.60;96.96;95561.75;5108297;27;20035;-76
2022/01/10 10:39:10;;;;;;;26.65;10.60;;;;;;;1.68;97.95;95564.06;5110731;27;20114;-76
2022/01/10 10:41:37;;;;;;;29.48;11.32;;;;;;;1.75;96.90;95559.63;5089275;28;20048;-75
2022/01/10 10:44:03;;;;;;;27.13;11.93;;;;;;;1.53;96.51;95562.59;5113779;27;20088;-76
2022/01/10 10:46:29;;;;;;;30.73;12.70;;;;;;;1.56;97.38;95564.75;5121029;27;20043;-76
2022/01/10 10:49:01;;;;;;;30.15;11.95;;;;;;;1.62;97.21;95570.13;5102083;28;20042;-78
2022/01/10 10:51:28;;;;;;;29.67;12.13;;;;;;;1.56;97.59;95576.94;5106967;28;20839;-76
2022/01/10 10:54:05;;;;;;;32.78;12.13;;;;;;;1.56;97.32;95582.13;5095602;28;20111;-76
2022/01/10 10:56:35;;;;;;;28.20;11.60;;;;;;;1.49;96.96;95582.16;5105677;27;20082;-77
2022/01/10 10:59:02;;;;;;;30.80;12.63;;;;;;;1.48;96.99;95585.78;5108445;28;20383;-77
2022/01/10 11:01:28;;;;;;;31.13;12.43;;;;;;;1.39;97.68;95597.41;5113442;28;20135;-79
2022/01/10 11:03:54;;;;;;;28.08;12.77;;;;;;;1.15;98.94;95591.97;5093559;28;20056;-77
2022/01/10 11:06:21;;;;;;;32.67;11.80;;;;;;;1.11;99.37;95606.31;5092305;28;20044;-77
2022/01/10 11:08:47;;;;;;;31.17;11.55;;;;;;;0.98;100.00;95601.22;5090260;28;20123;-77
2022/01/10 11:11:21;;;;;;;24.95;10.13;;;;;;;0.90;100.00;95611.81;5104009;28;20405;-79
2022/01/10 11:13:47;;;;;;;27.58;11.32;;;;;;;0.97;99.77;95609.97;5102361;28;20040;-76
2022/01/10 11:16:13;;;;;;;28.75;11.95;;;;;;;0.95;99.28;95617.16;5091186;28;20452;-76
2022/01/10 11:18:40;;;;;;;27.17;11.48;;;;;;;0.92;99.93;95627.94;5109696;28;20036;-77
2022/01/10 11:21:05;;;;;;;28.95;10.45;;;;;;;0.83;98.88;95620.41;5111006;28;20165;-78
2022/01/10 11:23:31;;;;;;;30.00;10.80;;;;;;;0.79;99.89;95629.59;5095911;28;20633;-76
2022/01/10 11:25:57;;;;;;;28.85;11.85;;;;;;;0.80;99.76;95631.16;5098499;28;20044;-76
2022/01/10 11:28:25;;;;;;;31.17;11.85;;;;;;;0.83;100.00;95641.13;5110435;28;20094;-76
2022/01/10 11:30:53;;;;;;;31.63;12.40;;;;;;;0.82;99.98;95634.34;5110249;28;20038;-75
2022/01/10 11:33:22;;;;;;;26.88;12.65;;;;;;;0.96;100.00;95639.47;5104907;28;20059;-76